createdAt,value
2022-09-10T00:01:59.410Z,16.50
2022-09-10T00:04:27.609Z,16.44
2022-09-10T00:06:55.433Z,16.38
2022-09-10T00:09:22.556Z,16.36
2022-09-10T00:11:49.130Z,16.35
2022-09-10T00:14:19.772Z,16.20
2022-09-10T00:16:46.447Z,16.14
2022-09-10T00:19:14.757Z,16.18
2022-09-10T00:21:41.724Z,16.19
2022-09-10T00:24:08.420Z,16.27
2022-09-10T00:26:39.236Z,16.24
2022-09-10T00:29:08.419Z,16.24
2022-09-10T00:31:35.187Z,16.31
2022-09-10T00:34:03.654Z,16.40
2022-09-10T00:36:33.269Z,16.45
2022-09-10T00:39:03.909Z,16.52
2022-09-10T00:41:31.111Z,16.52
2022-09-10T00:43:59.040Z,16.44
2022-09-10T00:46:46.028Z,16.64
2022-09-10T00:49:17.679Z,16.69
2022-09-10T00:51:47.110Z,16.63
2022-09-10T00:54:17.668Z,16.62
2022-09-10T00:56:45.353Z,16.56
2022-09-10T00:59:16.772Z,16.59
2022-09-10T01:01:43.313Z,16.57
2022-09-10T01:04:10.592Z,16.56
2022-09-10T01:06:40.332Z,16.60
2022-09-10T01:09:07.837Z,16.68
2022-09-10T01:11:45.938Z,16.74
2022-09-10T01:14:29.998Z,16.80
2022-09-10T01:17:14.686Z,16.76
2022-09-10T01:20:02.769Z,16.83
2022-09-10T01:23:18.137Z,16.80
2022-09-10T01:26:21.190Z,16.89
2022-09-10T01:29:13.782Z,16.86
2022-09-10T01:31:51.641Z,16.83
2022-09-10T01:34:24.876Z,16.74
2022-09-10T01:36:55.995Z,16.68
2022-09-10T01:39:24.354Z,16.69
2022-09-10T01:41:54.388Z,16.66
2022-09-10T01:44:46.220Z,16.65
2022-09-10T01:47:38.322Z,16.72
2022-09-10T01:50:32.854Z,16.64
2022-09-10T01:53:06.109Z,16.64
2022-09-10T01:55:47.866Z,16.72
2022-09-10T01:58:33.514Z,16.64
2022-09-10T02:01:36.274Z,16.66
2022-09-10T02:04:09.824Z,16.69
2022-09-10T02:06:39.860Z,16.71
2022-09-10T02:09:07.691Z,16.78
2022-09-10T02:11:53.405Z,16.89
2022-09-10T02:14:40.455Z,16.77
2022-09-10T02:17:19.069Z,16.75
2022-09-10T02:19:47.363Z,16.80
2022-09-10T02:22:15.352Z,16.90
2022-09-10T02:24:44.221Z,16.70
2022-09-10T02:27:14.875Z,16.37
2022-09-10T02:29:42.460Z,16.02
2022-09-10T02:32:09.817Z,15.84
2022-09-10T02:34:36.585Z,15.83
2022-09-10T02:37:03.864Z,15.76
2022-09-10T02:39:30.825Z,15.68
2022-09-10T02:42:01.859Z,15.65
2022-09-10T02:44:29.621Z,15.59
2022-09-10T02:46:56.074Z,15.60
2022-09-10T02:49:22.614Z,15.52
2022-09-10T02:51:50.473Z,15.56
2022-09-10T02:54:19.866Z,15.59
2022-09-10T02:56:49.777Z,15.64
2022-09-10T02:59:18.003Z,15.62
2022-09-10T03:01:44.705Z,15.67
2022-09-10T03:04:11.351Z,15.69
2022-09-10T03:06:38.172Z,15.63
2022-09-10T03:09:04.790Z,15.65
2022-09-10T03:11:31.632Z,15.63
2022-09-10T03:13:58.779Z,15.64
2022-09-10T03:16:26.025Z,15.58
2022-09-10T03:18:52.659Z,15.56
2022-09-10T03:21:22.167Z,15.64
2022-09-10T03:23:50.617Z,15.61
2022-09-10T03:26:25.153Z,15.61
2022-09-10T03:28:52.486Z,15.63
2022-09-10T03:31:21.640Z,15.63
2022-09-10T03:33:51.021Z,15.65
2022-09-10T03:36:18.213Z,15.72
2022-09-10T03:38:46.776Z,15.73
2022-09-10T03:41:13.563Z,15.78
2022-09-10T03:43:40.259Z,15.80
2022-09-10T03:46:11.074Z,15.82
2022-09-10T03:48:39.845Z,16.03
2022-09-10T03:51:08.280Z,16.07
2022-09-10T03:53:34.857Z,16.05
2022-09-10T03:56:03.334Z,16.00
2022-09-10T03:58:29.983Z,16.03
2022-09-10T04:00:56.522Z,16.05
2022-09-10T04:03:23.231Z,16.07
2022-09-10T04:05:51.391Z,16.26
2022-09-10T04:08:18.824Z,16.15
2022-09-10T04:10:45.569Z,16.04
2022-09-10T04:13:12.104Z,16.14
2022-09-10T04:15:39.653Z,16.16
2022-09-10T04:18:07.080Z,16.15
2022-09-10T04:20:34.883Z,16.14
2022-09-10T04:23:06.746Z,16.16
2022-09-10T04:25:35.427Z,16.26
2022-09-10T04:28:03.003Z,16.10
2022-09-10T04:30:30.823Z,16.12
2022-09-10T04:32:57.601Z,16.15
2022-09-10T04:35:24.253Z,16.14
2022-09-10T04:37:50.706Z,16.09
2022-09-10T04:40:17.451Z,16.09
2022-09-10T04:42:43.913Z,16.14
2022-09-10T04:45:10.687Z,16.05
2022-09-10T04:47:37.834Z,15.99
2022-09-10T04:50:06.210Z,15.99
2022-09-10T04:52:33.482Z,15.89
2022-09-10T04:54:59.953Z,15.94
2022-09-10T04:57:26.436Z,15.82
2022-09-10T04:59:54.017Z,15.89
2022-09-10T05:02:22.195Z,15.96
2022-09-10T05:04:49.159Z,15.92
2022-09-10T05:07:16.018Z,15.78
2022-09-10T05:09:42.588Z,15.77
2022-09-10T05:12:11.286Z,15.84
2022-09-10T05:14:38.047Z,15.85
2022-09-10T05:17:04.780Z,15.81
2022-09-10T05:19:32.116Z,15.86
2022-09-10T05:22:04.140Z,15.83
2022-09-10T05:24:34.340Z,15.93
2022-09-10T05:27:03.536Z,15.85
2022-09-10T05:29:30.002Z,15.87
2022-09-10T05:31:57.843Z,15.86
2022-09-10T05:34:25.534Z,15.86
2022-09-10T05:36:52.754Z,15.88
2022-09-10T05:39:20.268Z,15.94
2022-09-10T05:41:47.173Z,15.83
2022-09-10T05:44:15.022Z,15.88
2022-09-10T05:46:41.837Z,15.99
2022-09-10T05:49:13.020Z,15.83
2022-09-10T05:51:40.254Z,15.82
2022-09-10T05:54:08.101Z,15.87
2022-09-10T05:56:35.477Z,15.94
2022-09-10T05:59:03.962Z,15.91
2022-09-10T06:01:34.882Z,15.93
2022-09-10T06:04:04.053Z,15.92
2022-09-10T06:06:31.870Z,15.85
2022-09-10T06:09:05.105Z,15.87
2022-09-10T06:11:44.223Z,15.84
2022-09-10T06:14:11.111Z,15.63
2022-09-10T06:16:37.650Z,15.69
2022-09-10T06:19:05.571Z,15.69
2022-09-10T06:21:33.086Z,15.77
2022-09-10T06:24:00.144Z,15.66
2022-09-10T06:26:30.919Z,15.80
2022-09-10T06:29:03.437Z,15.87
2022-09-10T06:31:30.657Z,15.80
2022-09-10T06:33:58.686Z,15.77
2022-09-10T06:36:29.225Z,15.81
2022-09-10T06:38:57.707Z,15.81
2022-09-10T06:41:24.359Z,15.80
2022-09-10T06:43:55.894Z,15.78
2022-09-10T06:49:19.919Z,15.69
2022-09-10T06:51:50.043Z,15.67
2022-09-10T06:54:19.846Z,15.63
2022-09-10T06:56:48.761Z,15.67
2022-09-10T06:59:16.977Z,15.68
2022-09-10T07:01:47.303Z,15.74
2022-09-10T07:04:14.739Z,15.70
2022-09-10T07:06:41.742Z,15.69
2022-09-10T07:09:14.322Z,15.71
2022-09-10T07:11:59.091Z,15.68
2022-09-10T07:14:28.167Z,15.63
2022-09-10T07:16:57.438Z,15.67
2022-09-10T07:19:26.732Z,15.72
2022-09-10T07:21:53.249Z,15.68
2022-09-10T07:24:21.352Z,15.69
2022-09-10T07:27:14.125Z,15.66
2022-09-10T07:29:42.936Z,15.71
2022-09-10T07:32:18.740Z,15.68
2022-09-10T07:34:47.207Z,15.66
2022-09-10T07:37:15.739Z,15.68
2022-09-10T07:39:43.576Z,15.63
2022-09-10T07:42:11.564Z,15.66
2022-09-10T07:44:39.277Z,15.68
2022-09-10T07:47:06.135Z,15.71
2022-09-10T07:49:32.664Z,15.80
2022-09-10T07:52:00.244Z,15.85
2022-09-10T07:54:31.800Z,15.91
2022-09-10T07:56:59.462Z,16.01
2022-09-10T07:59:27.029Z,16.00
2022-09-10T08:02:00.076Z,15.96
2022-09-10T08:04:35.953Z,15.98
2022-09-10T08:07:05.504Z,15.99
2022-09-10T08:09:33.507Z,16.08
2022-09-10T08:12:01.663Z,16.07
2022-09-10T08:14:28.107Z,16.07
2022-09-10T08:16:56.029Z,16.05
2022-09-10T08:19:23.277Z,16.05
2022-09-10T08:21:51.362Z,16.07
2022-09-10T08:24:24.942Z,16.11
2022-09-10T08:26:52.765Z,16.20
2022-09-10T08:29:19.493Z,16.26
2022-09-10T08:31:46.057Z,16.18
2022-09-10T08:34:20.085Z,16.14
2022-09-10T08:36:53.036Z,16.18
2022-09-10T08:39:20.275Z,16.28
2022-09-10T08:41:56.075Z,16.29
2022-09-10T08:44:43.092Z,16.19
2022-09-10T08:47:29.571Z,16.20
2022-09-10T08:50:02.389Z,16.31
2022-09-10T08:52:45.152Z,16.32
2022-09-10T08:55:19.284Z,16.42
2022-09-10T08:57:54.524Z,16.39
2022-09-10T09:00:24.235Z,16.31
2022-09-10T09:03:09.998Z,16.26
2022-09-10T09:05:49.780Z,16.22
2022-09-10T09:08:21.840Z,16.09
2022-09-10T09:10:59.293Z,15.96
2022-09-10T09:13:41.148Z,15.96
2022-09-10T09:16:14.137Z,15.82
2022-09-10T09:18:54.984Z,15.84
2022-09-10T09:21:50.318Z,15.84
2022-09-10T09:24:31.436Z,15.75
2022-09-10T09:27:04.624Z,15.80
2022-09-10T09:29:43.517Z,15.63
2022-09-10T09:32:16.249Z,15.63
2022-09-10T09:34:57.205Z,15.67
2022-09-10T09:37:28.697Z,15.70
2022-09-10T09:40:06.453Z,15.67
2022-09-10T09:42:52.900Z,15.73
2022-09-10T09:45:39.628Z,15.75
2022-09-10T09:48:09.487Z,15.74
2022-09-10T09:50:41.548Z,15.77
2022-09-10T09:53:15.163Z,15.66
2022-09-10T09:55:46.886Z,15.67
2022-09-10T09:58:22.486Z,15.67
2022-09-10T10:00:53.627Z,15.67
2022-09-10T10:03:29.086Z,15.66
2022-09-10T10:06:12.385Z,15.65
2022-09-10T10:08:44.588Z,15.69
2022-09-10T10:11:16.171Z,15.73
2022-09-10T10:13:47.338Z,15.78
2022-09-10T10:16:33.682Z,15.74
2022-09-10T10:19:00.168Z,15.69
2022-09-10T10:21:34.395Z,15.63
2022-09-10T10:24:01.019Z,15.59
2022-09-10T10:26:30.859Z,15.60
2022-09-10T10:28:58.542Z,15.58
2022-09-10T10:31:42.302Z,15.60
2022-09-10T10:34:15.036Z,15.63
2022-09-10T10:37:19.123Z,15.65
2022-09-10T10:40:01.311Z,15.72
2022-09-10T10:42:38.241Z,15.75
2022-09-10T10:45:04.662Z,15.74
2022-09-10T10:48:09.934Z,15.85
2022-09-10T10:50:52.659Z,15.90
2022-09-10T10:53:39.246Z,15.82
2022-09-10T10:56:32.199Z,15.84
2022-09-10T10:59:09.478Z,15.78
2022-09-10T11:01:44.335Z,15.73
2022-09-10T11:04:26.411Z,15.70
2022-09-10T11:07:03.534Z,15.69
2022-09-10T11:09:38.982Z,15.66
2022-09-10T11:12:11.346Z,15.72
2022-09-10T11:14:48.423Z,15.81
2022-09-10T11:17:31.073Z,15.77
2022-09-10T11:20:28.899Z,15.77
2022-09-10T11:23:29.540Z,15.79
2022-09-10T11:26:08.984Z,15.76
2022-09-10T11:28:43.837Z,15.79
2022-09-10T11:31:31.559Z,15.89
2022-09-10T11:34:25.319Z,15.95
2022-09-10T11:36:58.644Z,16.03
2022-09-10T11:39:31.475Z,16.07
2022-09-10T11:42:01.081Z,16.12
2022-09-10T11:44:40.359Z,16.15
2022-09-10T11:47:26.501Z,16.20
2022-09-10T11:50:24.699Z,16.31
2022-09-10T11:52:51.543Z,16.31
2022-09-10T11:55:18.279Z,16.37
2022-09-10T11:58:22.938Z,16.40
2022-09-10T12:01:28.087Z,16.47
2022-09-10T12:04:03.025Z,16.53
2022-09-10T12:06:42.874Z,16.62
2022-09-10T12:09:17.882Z,16.67
2022-09-10T12:11:51.220Z,16.76
2022-09-10T12:14:21.552Z,16.82
2022-09-10T12:16:59.594Z,16.86
2022-09-10T12:19:31.170Z,16.93
2022-09-10T12:22:04.856Z,17.02
2022-09-10T12:24:34.579Z,17.17
2022-09-10T12:27:02.950Z,17.31
2022-09-10T12:29:33.993Z,17.36
2022-09-10T12:32:19.388Z,17.44
2022-09-10T12:34:49.711Z,17.49
2022-09-10T12:37:34.531Z,17.38
2022-09-10T12:40:40.053Z,17.19
2022-09-10T12:43:36.037Z,17.10
2022-09-10T12:46:05.519Z,17.09
2022-09-10T12:48:35.843Z,17.18
2022-09-10T12:51:17.954Z,17.34
2022-09-10T12:53:50.327Z,17.45
2022-09-10T12:56:30.600Z,17.60
2022-09-10T12:59:20.304Z,17.71
2022-09-10T13:01:49.158Z,17.82
2022-09-10T13:04:29.685Z,17.90
2022-09-10T13:07:02.904Z,17.98
2022-09-10T13:09:38.816Z,18.00
2022-09-10T13:12:16.204Z,18.06
2022-09-10T13:14:48.190Z,18.09
2022-09-10T13:17:38.465Z,18.00
2022-09-10T13:20:20.729Z,18.00
2022-09-10T13:22:57.558Z,18.04
2022-09-10T13:25:40.044Z,18.08
2022-09-10T13:28:32.798Z,18.11
2022-09-10T13:31:15.048Z,18.05
2022-09-10T13:33:53.784Z,17.63
2022-09-10T13:36:57.397Z,17.40
2022-09-10T13:39:53.831Z,17.33
2022-09-10T13:42:33.652Z,17.12
2022-09-10T13:45:19.096Z,17.07
2022-09-10T13:48:02.914Z,16.99
2022-09-10T13:51:24.085Z,16.93
2022-09-10T13:53:52.935Z,16.84
2022-09-10T13:56:28.796Z,16.91
2022-09-10T13:59:02.048Z,16.99
2022-09-10T14:01:51.413Z,16.97
2022-09-10T14:04:35.271Z,16.99
2022-09-10T14:07:25.597Z,17.05
2022-09-10T14:09:56.737Z,17.04
2022-09-10T14:12:27.817Z,17.10
2022-09-10T14:14:59.026Z,17.14
2022-09-10T14:17:50.777Z,17.12
2022-09-10T14:20:20.784Z,17.09
2022-09-10T14:22:47.415Z,17.07
2022-09-10T14:25:32.279Z,17.10
2022-09-10T14:28:16.757Z,17.14
2022-09-10T14:30:51.040Z,17.15
2022-09-10T14:33:36.084Z,17.16
2022-09-10T14:36:21.976Z,17.16
2022-09-10T14:39:18.190Z,17.26
2022-09-10T14:41:45.085Z,17.26
2022-09-10T14:44:24.114Z,17.28
2022-09-10T14:46:59.785Z,17.28
2022-09-10T14:49:29.674Z,17.33
2022-09-10T14:51:58.576Z,17.41
2022-09-10T14:54:26.562Z,17.46
2022-09-10T14:56:55.327Z,17.53
2022-09-10T14:59:31.945Z,17.55
2022-09-10T15:02:02.870Z,17.54
2022-09-10T15:04:30.137Z,17.55
2022-09-10T15:07:00.771Z,17.52
2022-09-10T15:09:28.993Z,17.48
2022-09-10T15:12:01.709Z,17.51
2022-09-10T15:14:28.249Z,17.47
2022-09-10T15:16:54.870Z,17.46
2022-09-10T15:19:22.364Z,17.45
2022-09-10T15:21:49.672Z,17.49
2022-09-10T15:24:19.288Z,17.45
2022-09-10T15:26:46.345Z,17.45
2022-09-10T15:29:13.011Z,17.40
2022-09-10T15:31:39.593Z,17.40
2022-09-10T15:34:08.308Z,17.43
2022-09-10T15:36:37.110Z,17.41
2022-09-10T15:39:04.719Z,17.46
2022-09-10T15:41:31.591Z,17.50
2022-09-10T15:43:59.112Z,17.50
2022-09-10T15:46:25.711Z,17.45
2022-09-10T15:48:53.477Z,17.47
2022-09-10T15:51:22.915Z,17.48
2022-09-10T15:53:51.366Z,17.51
2022-09-10T15:56:19.203Z,17.53
2022-09-10T15:58:57.209Z,17.53
2022-09-10T16:01:28.738Z,17.57
2022-09-10T16:03:57.461Z,17.56
2022-09-10T16:06:27.585Z,17.54
2022-09-10T16:08:56.948Z,17.51
2022-09-10T16:11:24.922Z,17.50
2022-09-10T16:13:51.381Z,17.53
2022-09-10T16:16:23.216Z,17.64
2022-09-10T16:18:53.131Z,17.55
2022-09-10T16:21:22.662Z,17.41
2022-09-10T16:23:51.134Z,17.43
2022-09-10T16:26:21.783Z,17.33
2022-09-10T16:29:03.334Z,17.27
2022-09-10T16:31:35.120Z,17.16
2022-09-10T16:34:06.718Z,17.18
2022-09-10T16:36:35.052Z,17.23
2022-09-10T16:39:01.891Z,17.26
2022-09-10T16:41:29.470Z,17.30
2022-09-10T16:44:00.430Z,17.32
2022-09-10T16:46:27.947Z,17.26
2022-09-10T16:48:55.933Z,17.26
2022-09-10T16:51:24.415Z,17.19
2022-09-10T16:54:04.901Z,17.18
2022-09-10T16:56:36.058Z,17.23
2022-09-10T16:59:02.847Z,17.24
2022-09-10T17:01:29.658Z,17.26
2022-09-10T17:03:56.291Z,17.30
2022-09-10T17:06:24.990Z,17.38
2022-09-10T17:08:57.078Z,17.35
2022-09-10T17:11:26.164Z,17.43
2022-09-10T17:13:54.067Z,17.57
2022-09-10T17:16:23.745Z,17.60
2022-09-10T17:19:02.143Z,17.55
2022-09-10T17:21:31.450Z,17.51
2022-09-10T17:23:59.149Z,17.53
2022-09-10T17:26:26.902Z,17.52
2022-09-10T17:28:59.075Z,17.40
2022-09-10T17:31:27.694Z,17.36
2022-09-10T17:33:55.600Z,17.33
2022-09-10T17:36:22.914Z,17.42
2022-09-10T17:38:49.671Z,17.44
2022-09-10T17:41:16.150Z,17.44
2022-09-10T17:43:43.575Z,17.38
2022-09-10T17:46:14.797Z,17.34
2022-09-10T17:48:45.645Z,17.42
2022-09-10T17:51:14.569Z,17.40
2022-09-10T17:53:41.394Z,17.43
2022-09-10T17:56:10.296Z,17.46
2022-09-10T17:58:37.326Z,17.42
2022-09-10T18:01:11.995Z,17.52
2022-09-10T18:03:39.967Z,17.53
2022-09-10T18:06:09.203Z,17.51
2022-09-10T18:08:37.611Z,17.49
2022-09-10T18:11:06.914Z,17.55
2022-09-10T18:13:34.673Z,17.55
2022-09-10T18:16:09.960Z,17.60
2022-09-10T18:18:37.746Z,17.65
2022-09-10T18:21:14.481Z,17.74
2022-09-10T18:23:44.094Z,17.63
2022-09-10T18:26:11.897Z,17.61
2022-09-10T18:28:38.429Z,17.71
2022-09-10T18:31:05.718Z,17.76
2022-09-10T18:33:38.373Z,17.77
2022-09-10T18:36:16.773Z,17.67
2022-09-10T18:38:44.410Z,17.63
2022-09-10T18:41:25.703Z,17.66
2022-09-10T18:43:53.936Z,17.72
2022-09-10T18:46:22.324Z,17.79
2022-09-10T18:48:49.914Z,17.73
2022-09-10T18:51:18.583Z,17.77
2022-09-10T18:53:45.889Z,17.79
2022-09-10T18:56:18.210Z,17.77
2022-09-10T18:58:59.232Z,17.66
2022-09-10T19:01:28.559Z,17.69
2022-09-10T19:03:57.473Z,17.70
2022-09-10T19:06:29.516Z,17.65
2022-09-10T19:08:59.291Z,17.66
2022-09-10T19:11:32.173Z,17.74
2022-09-10T19:13:59.851Z,17.73
2022-09-10T19:16:29.037Z,17.70
2022-09-10T19:18:57.852Z,17.71
2022-09-10T19:21:26.347Z,17.68
2022-09-10T19:23:59.596Z,17.69
2022-09-10T19:26:27.941Z,17.70
2022-09-10T19:28:57.389Z,17.59
2022-09-10T19:31:26.179Z,17.63
2022-09-10T19:33:57.892Z,17.59
2022-09-10T19:36:30.257Z,17.62
2022-09-10T19:38:57.583Z,17.57
2022-09-10T19:41:25.464Z,17.51
2022-09-10T19:43:53.616Z,17.46
2022-09-10T19:46:22.034Z,17.43
2022-09-10T19:48:49.131Z,17.48
2022-09-10T19:51:20.072Z,17.43
2022-09-10T19:53:48.063Z,17.45
2022-09-10T19:56:20.872Z,17.39
2022-09-10T19:58:52.446Z,17.57
2022-09-10T20:01:22.245Z,17.64
2022-09-10T20:03:50.622Z,17.65
2022-09-10T20:06:19.313Z,17.77
2022-09-10T20:08:50.399Z,17.77
2022-09-10T20:11:23.552Z,17.80
2022-09-10T20:13:54.663Z,17.76
2022-09-10T20:16:23.713Z,17.69
2022-09-10T20:18:50.435Z,17.69
2022-09-10T20:21:21.449Z,17.80
2022-09-10T20:23:50.940Z,17.91
2022-09-10T20:26:24.063Z,17.84
2022-09-10T20:28:53.604Z,17.91
2022-09-10T20:31:21.323Z,17.88
2022-09-10T20:33:49.156Z,17.92
2022-09-10T20:36:16.981Z,17.95
2022-09-10T20:38:43.874Z,17.97
2022-09-10T20:41:14.172Z,18.03
2022-09-10T20:43:40.669Z,18.01
2022-09-10T20:46:14.165Z,17.98
2022-09-10T20:48:40.922Z,17.96
2022-09-10T20:51:08.191Z,17.96
2022-09-10T20:53:39.228Z,17.96
2022-09-10T20:56:08.359Z,18.03
2022-09-10T20:58:36.808Z,17.91
2022-09-10T21:01:11.444Z,17.89
2022-09-10T21:03:38.678Z,17.94
2022-09-10T21:06:06.137Z,17.83
2022-09-10T21:08:32.747Z,17.91
2022-09-10T21:11:10.953Z,17.97
2022-09-10T21:13:41.874Z,17.97
2022-09-10T21:16:14.643Z,17.96
2022-09-10T21:18:42.404Z,17.95
2022-09-10T21:21:14.668Z,17.93
2022-09-10T21:23:45.910Z,17.98
2022-09-10T21:26:14.321Z,18.04
2022-09-10T21:28:41.947Z,17.98
2022-09-10T21:31:09.802Z,17.92
2022-09-10T21:33:36.967Z,17.88
2022-09-10T21:36:18.334Z,17.93
2022-09-10T21:38:49.143Z,17.90
2022-09-10T21:41:19.016Z,17.90
2022-09-10T21:43:47.160Z,17.91
2022-09-10T21:46:14.706Z,17.90
2022-09-10T21:48:42.313Z,17.95
2022-09-10T21:51:13.145Z,17.88
2022-09-10T21:53:41.389Z,17.98
2022-09-10T21:56:10.274Z,17.93
2022-09-10T21:58:42.950Z,17.93
2022-09-10T22:01:15.240Z,17.94
2022-09-10T22:03:41.816Z,17.75
2022-09-10T22:06:14.225Z,17.79
2022-09-10T22:08:42.797Z,17.74
2022-09-10T22:11:16.008Z,17.73
2022-09-10T22:13:43.760Z,17.67
2022-09-10T22:16:15.089Z,17.72
2022-09-10T22:18:42.059Z,17.74
2022-09-10T22:21:09.352Z,17.74
2022-09-10T22:23:38.110Z,17.77
2022-09-10T22:26:21.922Z,17.80
2022-09-10T22:28:54.141Z,17.74
2022-09-10T22:31:26.471Z,17.69
2022-09-10T22:33:59.616Z,17.72
2022-09-10T22:36:31.226Z,17.67
2022-09-10T22:39:00.209Z,17.73
2022-09-10T22:41:27.441Z,17.68
2022-09-10T22:43:54.255Z,17.70
2022-09-10T22:46:21.429Z,17.76
2022-09-10T22:48:47.968Z,17.73
2022-09-10T22:51:17.971Z,17.70
2022-09-10T22:53:45.342Z,17.62
2022-09-10T22:56:14.091Z,17.60
2022-09-10T22:58:41.166Z,17.63
2022-09-10T23:01:18.869Z,17.56
2022-09-10T23:03:45.895Z,17.57
2022-09-10T23:06:16.353Z,17.59
2022-09-10T23:08:45.100Z,17.65
2022-09-10T23:11:13.211Z,17.76
2022-09-10T23:13:39.679Z,17.77
2022-09-10T23:16:11.301Z,17.74
2022-09-10T23:18:39.520Z,17.68
2022-09-10T23:21:07.020Z,17.77
2022-09-10T23:23:33.636Z,17.84
2022-09-10T23:26:08.837Z,17.81
2022-09-10T23:28:36.628Z,17.85
2022-09-10T23:31:23.752Z,17.89
2022-09-10T23:34:00.833Z,17.83
2022-09-10T23:36:31.207Z,17.85
2022-09-10T23:39:11.210Z,17.83
2022-09-10T23:41:39.107Z,17.76
2022-09-10T23:44:06.193Z,17.78
2022-09-10T23:46:32.681Z,17.75
2022-09-10T23:48:59.168Z,17.72
2022-09-10T23:51:26.079Z,17.73
2022-09-10T23:53:54.545Z,17.76
2022-09-10T23:56:22.415Z,17.79
2022-09-10T23:58:49.452Z,17.75
